sensor_id;sensor_type;location;lat;lon;timestamp;P1;durP1;ratioP1;P2;durP2;ratioP2
27161;SDS011;54464;50.558;9.704;2023-04-06T00:01:38;11.20;;;7.43;;
27161;SDS011;54464;50.558;9.704;2023-04-06T00:04:04;9.77;;;6.83;;
27161;SDS011;54464;50.558;9.704;2023-04-06T00:06:31;8.97;;;7.00;;
27161;SDS011;54464;50.558;9.704;2023-04-06T00:08:57;12.20;;;7.50;;
27161;SDS011;54464;50.558;9.704;2023-04-06T00:11:23;10.13;;;6.53;;
27161;SDS011;54464;50.558;9.704;2023-04-06T00:13:48;10.20;;;7.07;;
27161;SDS011;54464;50.558;9.704;2023-04-06T00:16:14;8.73;;;6.97;;
27161;SDS011;54464;50.558;9.704;2023-04-06T00:18:40;11.10;;;7.37;;
27161;SDS011;54464;50.558;9.704;2023-04-06T00:21:06;10.10;;;7.10;;
27161;SDS011;54464;50.558;9.704;2023-04-06T00:23:32;11.53;;;7.50;;
27161;SDS011;54464;50.558;9.704;2023-04-06T00:25:57;8.27;;;7.20;;
27161;SDS011;54464;50.558;9.704;2023-04-06T00:28:23;10.77;;;6.93;;
27161;SDS011;54464;50.558;9.704;2023-04-06T00:30:52;8.63;;;6.90;;
27161;SDS011;54464;50.558;9.704;2023-04-06T00:33:20;11.10;;;7.27;;
27161;SDS011;54464;50.558;9.704;2023-04-06T00:35:46;10.60;;;6.93;;
27161;SDS011;54464;50.558;9.704;2023-04-06T00:38:11;10.10;;;6.90;;
27161;SDS011;54464;50.558;9.704;2023-04-06T00:40:37;8.63;;;6.47;;
27161;SDS011;54464;50.558;9.704;2023-04-06T00:43:05;11.23;;;7.60;;
27161;SDS011;54464;50.558;9.704;2023-04-06T00:45:30;9.63;;;8.00;;
27161;SDS011;54464;50.558;9.704;2023-04-06T00:47:56;9.23;;;7.30;;
27161;SDS011;54464;50.558;9.704;2023-04-06T00:50:22;13.13;;;7.90;;
27161;SDS011;54464;50.558;9.704;2023-04-06T00:52:48;9.90;;;7.43;;
27161;SDS011;54464;50.558;9.704;2023-04-06T00:55:13;8.90;;;7.07;;
27161;SDS011;54464;50.558;9.704;2023-04-06T00:57:39;8.83;;;7.90;;
27161;SDS011;54464;50.558;9.704;2023-04-06T01:00:05;13.20;;;8.53;;
27161;SDS011;54464;50.558;9.704;2023-04-06T01:02:31;9.87;;;7.23;;
27161;SDS011;54464;50.558;9.704;2023-04-06T01:04:57;12.70;;;7.60;;
27161;SDS011;54464;50.558;9.704;2023-04-06T01:07:22;8.57;;;6.97;;
27161;SDS011;54464;50.558;9.704;2023-04-06T01:09:49;9.73;;;7.17;;
27161;SDS011;54464;50.558;9.704;2023-04-06T01:12:15;10.07;;;7.17;;
27161;SDS011;54464;50.558;9.704;2023-04-06T01:14:41;8.87;;;7.07;;
27161;SDS011;54464;50.558;9.704;2023-04-06T01:17:06;7.90;;;6.23;;
27161;SDS011;54464;50.558;9.704;2023-04-06T01:19:32;9.40;;;6.47;;
27161;SDS011;54464;50.558;9.704;2023-04-06T01:21:58;8.93;;;6.80;;
27161;SDS011;54464;50.558;9.704;2023-04-06T01:24:23;9.20;;;6.47;;
27161;SDS011;54464;50.558;9.704;2023-04-06T01:26:49;7.90;;;6.07;;
27161;SDS011;54464;50.558;9.704;2023-04-06T01:29:15;6.43;;;5.83;;
27161;SDS011;54464;50.558;9.704;2023-04-06T01:31:40;8.07;;;6.77;;
27161;SDS011;54464;50.558;9.704;2023-04-06T01:34:06;6.67;;;5.77;;
27161;SDS011;54464;50.558;9.704;2023-04-06T01:36:32;7.97;;;6.30;;
27161;SDS011;54464;50.558;9.704;2023-04-06T01:38:57;7.47;;;6.67;;
27161;SDS011;54464;50.558;9.704;2023-04-06T01:41:23;7.10;;;5.77;;
27161;SDS011;54464;50.558;9.704;2023-04-06T01:43:49;9.63;;;7.97;;
27161;SDS011;54464;50.558;9.704;2023-04-06T01:46:19;9.83;;;7.00;;
27161;SDS011;54464;50.558;9.704;2023-04-06T01:48:45;7.90;;;6.83;;
27161;SDS011;54464;50.558;9.704;2023-04-06T01:51:10;9.10;;;6.90;;
27161;SDS011;54464;50.558;9.704;2023-04-06T01:53:36;11.83;;;7.40;;
27161;SDS011;54464;50.558;9.704;2023-04-06T01:56:02;11.37;;;7.57;;
27161;SDS011;54464;50.558;9.704;2023-04-06T01:58:27;11.73;;;7.40;;
27161;SDS011;54464;50.558;9.704;2023-04-06T02:00:53;11.57;;;7.53;;
27161;SDS011;54464;50.558;9.704;2023-04-06T02:03:19;8.70;;;6.33;;
27161;SDS011;54464;50.558;9.704;2023-04-06T02:05:45;10.20;;;6.97;;
27161;SDS011;54464;50.558;9.704;2023-04-06T02:08:10;8.37;;;6.60;;
27161;SDS011;54464;50.558;9.704;2023-04-06T02:10:36;12.93;;;7.50;;
27161;SDS011;54464;50.558;9.704;2023-04-06T02:13:01;10.33;;;6.93;;
27161;SDS011;54464;50.558;9.704;2023-04-06T02:15:27;8.83;;;6.40;;
27161;SDS011;54464;50.558;9.704;2023-04-06T02:17:53;7.97;;;6.90;;
27161;SDS011;54464;50.558;9.704;2023-04-06T02:20:18;9.53;;;6.50;;
27161;SDS011;54464;50.558;9.704;2023-04-06T02:22:44;7.63;;;6.20;;
27161;SDS011;54464;50.558;9.704;2023-04-06T02:25:10;8.53;;;7.03;;
27161;SDS011;54464;50.558;9.704;2023-04-06T02:27:36;9.00;;;6.20;;
27161;SDS011;54464;50.558;9.704;2023-04-06T02:30:04;11.37;;;7.77;;
27161;SDS011;54464;50.558;9.704;2023-04-06T02:32:30;8.23;;;6.23;;
27161;SDS011;54464;50.558;9.704;2023-04-06T02:34:56;8.90;;;6.90;;
27161;SDS011;54464;50.558;9.704;2023-04-06T02:37:22;8.13;;;6.17;;
27161;SDS011;54464;50.558;9.704;2023-04-06T02:39:48;11.97;;;6.43;;
27161;SDS011;54464;50.558;9.704;2023-04-06T02:42:14;8.17;;;6.33;;
27161;SDS011;54464;50.558;9.704;2023-04-06T02:44:41;9.43;;;6.73;;
27161;SDS011;54464;50.558;9.704;2023-04-06T02:47:07;9.83;;;6.77;;
27161;SDS011;54464;50.558;9.704;2023-04-06T02:49:32;8.93;;;6.73;;
27161;SDS011;54464;50.558;9.704;2023-04-06T02:51:58;10.40;;;7.30;;
27161;SDS011;54464;50.558;9.704;2023-04-06T02:54:23;9.70;;;6.87;;
27161;SDS011;54464;50.558;9.704;2023-04-06T02:56:49;8.33;;;6.63;;
27161;SDS011;54464;50.558;9.704;2023-04-06T02:59:15;11.70;;;7.03;;
27161;SDS011;54464;50.558;9.704;2023-04-06T03:01:40;11.43;;;6.80;;
27161;SDS011;54464;50.558;9.704;2023-04-06T03:04:06;8.53;;;6.47;;
27161;SDS011;54464;50.558;9.704;2023-04-06T03:06:32;9.43;;;6.97;;
27161;SDS011;54464;50.558;9.704;2023-04-06T03:08:57;9.43;;;6.67;;
27161;SDS011;54464;50.558;9.704;2023-04-06T03:11:23;9.97;;;7.33;;
27161;SDS011;54464;50.558;9.704;2023-04-06T03:13:48;8.90;;;6.90;;
27161;SDS011;54464;50.558;9.704;2023-04-06T03:16:14;11.67;;;7.37;;
27161;SDS011;54464;50.558;9.704;2023-04-06T03:18:39;12.60;;;7.87;;
27161;SDS011;54464;50.558;9.704;2023-04-06T03:21:05;10.37;;;7.03;;
27161;SDS011;54464;50.558;9.704;2023-04-06T03:23:31;10.80;;;7.47;;
27161;SDS011;54464;50.558;9.704;2023-04-06T03:25:56;8.63;;;6.57;;
27161;SDS011;54464;50.558;9.704;2023-04-06T03:28:22;11.20;;;7.17;;
27161;SDS011;54464;50.558;9.704;2023-04-06T03:30:48;8.67;;;6.53;;
27161;SDS011;54464;50.558;9.704;2023-04-06T03:33:14;10.67;;;7.20;;
27161;SDS011;54464;50.558;9.704;2023-04-06T03:35:40;9.50;;;7.33;;
27161;SDS011;54464;50.558;9.704;2023-04-06T03:38:05;10.73;;;7.63;;
27161;SDS011;54464;50.558;9.704;2023-04-06T03:40:31;11.07;;;7.90;;
27161;SDS011;54464;50.558;9.704;2023-04-06T03:42:56;11.33;;;8.93;;
27161;SDS011;54464;50.558;9.704;2023-04-06T03:45:22;11.90;;;7.90;;
27161;SDS011;54464;50.558;9.704;2023-04-06T03:47:48;10.83;;;8.10;;
27161;SDS011;54464;50.558;9.704;2023-04-06T03:50:13;11.87;;;9.07;;
27161;SDS011;54464;50.558;9.704;2023-04-06T03:52:39;10.70;;;8.60;;
27161;SDS011;54464;50.558;9.704;2023-04-06T03:55:05;10.77;;;8.73;;
27161;SDS011;54464;50.558;9.704;2023-04-06T03:57:31;10.23;;;8.17;;
27161;SDS011;54464;50.558;9.704;2023-04-06T03:59:57;12.70;;;8.37;;
27161;SDS011;54464;50.558;9.704;2023-04-06T04:02:23;11.87;;;8.30;;
27161;SDS011;54464;50.558;9.704;2023-04-06T04:04:48;11.40;;;8.70;;
27161;SDS011;54464;50.558;9.704;2023-04-06T04:07:14;11.93;;;8.80;;
27161;SDS011;54464;50.558;9.704;2023-04-06T04:09:40;13.27;;;8.47;;
27161;SDS011;54464;50.558;9.704;2023-04-06T04:12:05;10.50;;;8.37;;
27161;SDS011;54464;50.558;9.704;2023-04-06T04:14:31;11.23;;;8.00;;
27161;SDS011;54464;50.558;9.704;2023-04-06T04:19:24;15.87;;;11.50;;
27161;SDS011;54464;50.558;9.704;2023-04-06T04:21:50;18.20;;;12.50;;
27161;SDS011;54464;50.558;9.704;2023-04-06T04:24:16;16.67;;;10.50;;
27161;SDS011;54464;50.558;9.704;2023-04-06T04:26:41;14.53;;;10.07;;
27161;SDS011;54464;50.558;9.704;2023-04-06T04:29:07;12.77;;;9.43;;
27161;SDS011;54464;50.558;9.704;2023-04-06T04:31:32;11.23;;;9.00;;
27161;SDS011;54464;50.558;9.704;2023-04-06T04:33:59;11.53;;;8.30;;
27161;SDS011;54464;50.558;9.704;2023-04-06T04:36:25;11.50;;;8.90;;
27161;SDS011;54464;50.558;9.704;2023-04-06T04:38:51;13.83;;;8.63;;
27161;SDS011;54464;50.558;9.704;2023-04-06T04:41:17;13.00;;;9.10;;
27161;SDS011;54464;50.558;9.704;2023-04-06T04:43:43;11.13;;;9.20;;
27161;SDS011;54464;50.558;9.704;2023-04-06T04:46:09;14.40;;;10.60;;
27161;SDS011;54464;50.558;9.704;2023-04-06T04:48:34;15.07;;;10.73;;
27161;SDS011;54464;50.558;9.704;2023-04-06T04:51:00;14.20;;;10.47;;
27161;SDS011;54464;50.558;9.704;2023-04-06T04:53:26;13.83;;;10.37;;
27161;SDS011;54464;50.558;9.704;2023-04-06T04:55:52;14.43;;;9.50;;
27161;SDS011;54464;50.558;9.704;2023-04-06T04:58:17;12.47;;;10.20;;
27161;SDS011;54464;50.558;9.704;2023-04-06T05:00:44;11.60;;;8.93;;
27161;SDS011;54464;50.558;9.704;2023-04-06T05:03:21;11.97;;;9.27;;
27161;SDS011;54464;50.558;9.704;2023-04-06T05:05:48;11.93;;;8.73;;
27161;SDS011;54464;50.558;9.704;2023-04-06T05:08:14;11.80;;;8.90;;
27161;SDS011;54464;50.558;9.704;2023-04-06T05:10:40;13.37;;;9.10;;
27161;SDS011;54464;50.558;9.704;2023-04-06T05:13:06;13.40;;;9.47;;
27161;SDS011;54464;50.558;9.704;2023-04-06T05:15:32;10.50;;;8.80;;
27161;SDS011;54464;50.558;9.704;2023-04-06T05:18:03;13.03;;;8.93;;
27161;SDS011;54464;50.558;9.704;2023-04-06T05:20:29;12.73;;;8.43;;
27161;SDS011;54464;50.558;9.704;2023-04-06T05:22:55;11.10;;;8.13;;
27161;SDS011;54464;50.558;9.704;2023-04-06T05:25:21;11.80;;;7.77;;
27161;SDS011;54464;50.558;9.704;2023-04-06T05:27:46;8.57;;;7.27;;
27161;SDS011;54464;50.558;9.704;2023-04-06T05:30:12;10.67;;;8.00;;
27161;SDS011;54464;50.558;9.704;2023-04-06T05:32:38;10.53;;;7.87;;
27161;SDS011;54464;50.558;9.704;2023-04-06T05:35:04;12.13;;;8.23;;
27161;SDS011;54464;50.558;9.704;2023-04-06T05:37:30;10.83;;;8.07;;
27161;SDS011;54464;50.558;9.704;2023-04-06T05:39:56;11.53;;;8.10;;
27161;SDS011;54464;50.558;9.704;2023-04-06T05:42:22;11.70;;;8.43;;
27161;SDS011;54464;50.558;9.704;2023-04-06T05:44:47;10.23;;;7.97;;
27161;SDS011;54464;50.558;9.704;2023-04-06T05:47:13;10.43;;;7.80;;
27161;SDS011;54464;50.558;9.704;2023-04-06T05:49:39;12.10;;;8.17;;
27161;SDS011;54464;50.558;9.704;2023-04-06T05:52:07;9.40;;;7.83;;
27161;SDS011;54464;50.558;9.704;2023-04-06T05:54:33;11.13;;;8.00;;
27161;SDS011;54464;50.558;9.704;2023-04-06T05:57:01;12.23;;;8.07;;
27161;SDS011;54464;50.558;9.704;2023-04-06T05:59:27;12.97;;;8.00;;
27161;SDS011;54464;50.558;9.704;2023-04-06T06:01:55;11.73;;;8.57;;
27161;SDS011;54464;50.558;9.704;2023-04-06T06:04:20;11.13;;;8.70;;
27161;SDS011;54464;50.558;9.704;2023-04-06T06:06:46;11.80;;;8.20;;
27161;SDS011;54464;50.558;9.704;2023-04-06T06:09:11;12.40;;;8.33;;
27161;SDS011;54464;50.558;9.704;2023-04-06T06:11:37;11.10;;;8.80;;
27161;SDS011;54464;50.558;9.704;2023-04-06T06:14:03;12.77;;;8.40;;
27161;SDS011;54464;50.558;9.704;2023-04-06T06:16:28;10.77;;;8.07;;
27161;SDS011;54464;50.558;9.704;2023-04-06T06:18:54;12.30;;;8.40;;
27161;SDS011;54464;50.558;9.704;2023-04-06T06:21:20;11.37;;;8.83;;
27161;SDS011;54464;50.558;9.704;2023-04-06T06:23:45;10.97;;;8.10;;
27161;SDS011;54464;50.558;9.704;2023-04-06T06:26:13;11.20;;;8.57;;
27161;SDS011;54464;50.558;9.704;2023-04-06T06:28:38;12.07;;;8.20;;
27161;SDS011;54464;50.558;9.704;2023-04-06T06:31:04;11.73;;;8.20;;
27161;SDS011;54464;50.558;9.704;2023-04-06T06:33:30;10.67;;;8.23;;
27161;SDS011;54464;50.558;9.704;2023-04-06T06:35:55;11.83;;;8.30;;
27161;SDS011;54464;50.558;9.704;2023-04-06T06:38:21;10.87;;;9.00;;
27161;SDS011;54464;50.558;9.704;2023-04-06T06:40:47;10.00;;;8.03;;
27161;SDS011;54464;50.558;9.704;2023-04-06T06:43:13;10.33;;;8.53;;
27161;SDS011;54464;50.558;9.704;2023-04-06T06:45:38;11.47;;;8.17;;
27161;SDS011;54464;50.558;9.704;2023-04-06T06:48:04;11.73;;;8.30;;
27161;SDS011;54464;50.558;9.704;2023-04-06T06:50:30;9.70;;;8.67;;
27161;SDS011;54464;50.558;9.704;2023-04-06T06:52:55;9.23;;;7.80;;
27161;SDS011;54464;50.558;9.704;2023-04-06T06:55:21;10.20;;;7.63;;
27161;SDS011;54464;50.558;9.704;2023-04-06T06:57:47;9.27;;;7.33;;
27161;SDS011;54464;50.558;9.704;2023-04-06T07:00:13;10.50;;;7.53;;
27161;SDS011;54464;50.558;9.704;2023-04-06T07:02:39;9.27;;;7.30;;
27161;SDS011;54464;50.558;9.704;2023-04-06T07:05:05;10.50;;;7.17;;
27161;SDS011;54464;50.558;9.704;2023-04-06T07:07:34;8.97;;;7.17;;
27161;SDS011;54464;50.558;9.704;2023-04-06T07:10:00;11.40;;;7.83;;
27161;SDS011;54464;50.558;9.704;2023-04-06T07:12:26;10.53;;;7.33;;
27161;SDS011;54464;50.558;9.704;2023-04-06T07:14:52;11.23;;;7.30;;
27161;SDS011;54464;50.558;9.704;2023-04-06T07:17:18;11.20;;;7.33;;
27161;SDS011;54464;50.558;9.704;2023-04-06T07:19:43;11.50;;;7.53;;
27161;SDS011;54464;50.558;9.704;2023-04-06T07:22:10;9.87;;;7.03;;
27161;SDS011;54464;50.558;9.704;2023-04-06T07:24:36;9.90;;;7.50;;
27161;SDS011;54464;50.558;9.704;2023-04-06T07:27:01;10.30;;;6.73;;
27161;SDS011;54464;50.558;9.704;2023-04-06T07:29:27;9.87;;;7.07;;
27161;SDS011;54464;50.558;9.704;2023-04-06T07:31:53;11.87;;;7.47;;
27161;SDS011;54464;50.558;9.704;2023-04-06T07:34:19;9.70;;;6.97;;
27161;SDS011;54464;50.558;9.704;2023-04-06T07:36:45;11.30;;;7.63;;
27161;SDS011;54464;50.558;9.704;2023-04-06T07:39:11;9.60;;;7.23;;
27161;SDS011;54464;50.558;9.704;2023-04-06T07:41:37;8.57;;;6.87;;
27161;SDS011;54464;50.558;9.704;2023-04-06T07:44:03;10.03;;;7.57;;
27161;SDS011;54464;50.558;9.704;2023-04-06T07:46:29;12.07;;;7.93;;
27161;SDS011;54464;50.558;9.704;2023-04-06T07:48:56;11.67;;;7.57;;
27161;SDS011;54464;50.558;9.704;2023-04-06T07:51:22;9.83;;;7.37;;
27161;SDS011;54464;50.558;9.704;2023-04-06T07:53:49;10.17;;;7.77;;
27161;SDS011;54464;50.558;9.704;2023-04-06T07:56:15;11.90;;;8.13;;
27161;SDS011;54464;50.558;9.704;2023-04-06T07:58:41;9.43;;;7.30;;
27161;SDS011;54464;50.558;9.704;2023-04-06T08:01:06;9.20;;;7.20;;
27161;SDS011;54464;50.558;9.704;2023-04-06T08:03:35;9.23;;;7.50;;
27161;SDS011;54464;50.558;9.704;2023-04-06T08:06:02;8.90;;;6.57;;
27161;SDS011;54464;50.558;9.704;2023-04-06T08:08:28;8.63;;;6.80;;
27161;SDS011;54464;50.558;9.704;2023-04-06T08:10:54;10.57;;;7.40;;
27161;SDS011;54464;50.558;9.704;2023-04-06T08:13:20;10.07;;;7.30;;
27161;SDS011;54464;50.558;9.704;2023-04-06T08:15:45;8.83;;;6.40;;
27161;SDS011;54464;50.558;9.704;2023-04-06T08:18:11;7.50;;;6.53;;
27161;SDS011;54464;50.558;9.704;2023-04-06T08:20:37;9.50;;;7.43;;
27161;SDS011;54464;50.558;9.704;2023-04-06T08:23:03;9.27;;;6.83;;
27161;SDS011;54464;50.558;9.704;2023-04-06T08:25:29;9.13;;;6.97;;
27161;SDS011;54464;50.558;9.704;2023-04-06T08:27:55;8.90;;;6.87;;
27161;SDS011;54464;50.558;9.704;2023-04-06T08:30:21;10.20;;;7.03;;
27161;SDS011;54464;50.558;9.704;2023-04-06T08:32:46;8.37;;;6.87;;
27161;SDS011;54464;50.558;9.704;2023-04-06T08:35:12;9.53;;;6.97;;
27161;SDS011;54464;50.558;9.704;2023-04-06T08:37:38;6.27;;;5.23;;
27161;SDS011;54464;50.558;9.704;2023-04-06T08:40:04;12.60;;;7.43;;
27161;SDS011;54464;50.558;9.704;2023-04-06T08:42:33;7.60;;;6.67;;
27161;SDS011;54464;50.558;9.704;2023-04-06T08:45:06;8.50;;;6.73;;
27161;SDS011;54464;50.558;9.704;2023-04-06T08:47:34;8.37;;;6.83;;
27161;SDS011;54464;50.558;9.704;2023-04-06T08:49:59;8.10;;;6.57;;
27161;SDS011;54464;50.558;9.704;2023-04-06T08:52:29;9.80;;;7.20;;
27161;SDS011;54464;50.558;9.704;2023-04-06T08:54:57;8.00;;;6.43;;
27161;SDS011;54464;50.558;9.704;2023-04-06T08:57:22;8.13;;;7.13;;
27161;SDS011;54464;50.558;9.704;2023-04-06T08:59:49;9.07;;;7.00;;
27161;SDS011;54464;50.558;9.704;2023-04-06T09:02:17;11.20;;;7.10;;
27161;SDS011;54464;50.558;9.704;2023-04-06T09:04:47;8.07;;;6.97;;
27161;SDS011;54464;50.558;9.704;2023-04-06T09:07:14;8.93;;;6.43;;
27161;SDS011;54464;50.558;9.704;2023-04-06T09:09:46;6.17;;;5.10;;
27161;SDS011;54464;50.558;9.704;2023-04-06T09:12:26;9.33;;;7.50;;
27161;SDS011;54464;50.558;9.704;2023-04-06T09:14:56;9.07;;;7.10;;
27161;SDS011;54464;50.558;9.704;2023-04-06T09:17:23;12.93;;;7.63;;
27161;SDS011;54464;50.558;9.704;2023-04-06T09:19:52;10.13;;;7.40;;
27161;SDS011;54464;50.558;9.704;2023-04-06T09:22:18;6.37;;;4.77;;
27161;SDS011;54464;50.558;9.704;2023-04-06T09:24:51;9.20;;;6.07;;
27161;SDS011;54464;50.558;9.704;2023-04-06T09:27:18;9.63;;;6.73;;
27161;SDS011;54464;50.558;9.704;2023-04-06T09:30:02;7.37;;;5.97;;
27161;SDS011;54464;50.558;9.704;2023-04-06T09:32:31;9.30;;;6.17;;
27161;SDS011;54464;50.558;9.704;2023-04-06T09:35:09;6.60;;;4.47;;
27161;SDS011;54464;50.558;9.704;2023-04-06T09:37:35;7.10;;;4.97;;
27161;SDS011;54464;50.558;9.704;2023-04-06T09:40:04;7.67;;;6.37;;
27161;SDS011;54464;50.558;9.704;2023-04-06T09:42:32;7.17;;;5.87;;
27161;SDS011;54464;50.558;9.704;2023-04-06T09:45:09;7.87;;;5.37;;
27161;SDS011;54464;50.558;9.704;2023-04-06T09:47:35;4.90;;;3.50;;
27161;SDS011;54464;50.558;9.704;2023-04-06T09:50:02;8.40;;;6.60;;
27161;SDS011;54464;50.558;9.704;2023-04-06T09:52:38;6.63;;;4.90;;
27161;SDS011;54464;50.558;9.704;2023-04-06T09:55:12;6.97;;;5.30;;
27161;SDS011;54464;50.558;9.704;2023-04-06T09:58:05;8.87;;;6.50;;
27161;SDS011;54464;50.558;9.704;2023-04-06T10:00:41;7.93;;;5.87;;
27161;SDS011;54464;50.558;9.704;2023-04-06T10:05:52;7.40;;;5.57;;
27161;SDS011;54464;50.558;9.704;2023-04-06T10:08:24;8.27;;;6.97;;
27161;SDS011;54464;50.558;9.704;2023-04-06T10:10:52;10.50;;;6.60;;
27161;SDS011;54464;50.558;9.704;2023-04-06T10:13:18;9.13;;;6.40;;
27161;SDS011;54464;50.558;9.704;2023-04-06T10:15:45;10.53;;;7.40;;
27161;SDS011;54464;50.558;9.704;2023-04-06T10:18:10;10.10;;;7.50;;
27161;SDS011;54464;50.558;9.704;2023-04-06T10:20:42;10.40;;;7.20;;
27161;SDS011;54464;50.558;9.704;2023-04-06T10:25:40;7.83;;;6.70;;
27161;SDS011;54464;50.558;9.704;2023-04-06T10:28:20;8.83;;;7.13;;
27161;SDS011;54464;50.558;9.704;2023-04-06T10:30:46;7.80;;;6.27;;
27161;SDS011;54464;50.558;9.704;2023-04-06T10:33:13;7.73;;;6.93;;
27161;SDS011;54464;50.558;9.704;2023-04-06T10:35:40;8.93;;;7.37;;
27161;SDS011;54464;50.558;9.704;2023-04-06T10:38:05;9.47;;;7.60;;
27161;SDS011;54464;50.558;9.704;2023-04-06T10:40:32;7.50;;;6.37;;
27161;SDS011;54464;50.558;9.704;2023-04-06T10:43:09;9.47;;;7.50;;
27161;SDS011;54464;50.558;9.704;2023-04-06T10:45:37;8.83;;;7.23;;
27161;SDS011;54464;50.558;9.704;2023-04-06T10:48:16;8.87;;;6.90;;
27161;SDS011;54464;50.558;9.704;2023-04-06T10:50:44;8.57;;;7.13;;
27161;SDS011;54464;50.558;9.704;2023-04-06T10:53:20;8.27;;;6.97;;
27161;SDS011;54464;50.558;9.704;2023-04-06T10:55:47;8.30;;;6.43;;
27161;SDS011;54464;50.558;9.704;2023-04-06T10:58:24;8.43;;;7.10;;
27161;SDS011;54464;50.558;9.704;2023-04-06T11:00:50;7.37;;;6.50;;
27161;SDS011;54464;50.558;9.704;2023-04-06T11:03:16;9.03;;;6.77;;
27161;SDS011;54464;50.558;9.704;2023-04-06T11:05:43;7.87;;;7.07;;
27161;SDS011;54464;50.558;9.704;2023-04-06T11:08:10;7.33;;;6.63;;
27161;SDS011;54464;50.558;9.704;2023-04-06T11:10:46;9.03;;;7.13;;
27161;SDS011;54464;50.558;9.704;2023-04-06T11:13:14;7.80;;;6.90;;
27161;SDS011;54464;50.558;9.704;2023-04-06T11:15:40;7.93;;;7.13;;
27161;SDS011;54464;50.558;9.704;2023-04-06T11:18:06;8.03;;;7.20;;
27161;SDS011;54464;50.558;9.704;2023-04-06T11:20:31;7.53;;;6.83;;
27161;SDS011;54464;50.558;9.704;2023-04-06T11:22:57;7.83;;;7.07;;
27161;SDS011;54464;50.558;9.704;2023-04-06T11:25:24;7.63;;;6.80;;
27161;SDS011;54464;50.558;9.704;2023-04-06T11:27:52;6.77;;;6.17;;
27161;SDS011;54464;50.558;9.704;2023-04-06T11:30:18;7.50;;;6.70;;
27161;SDS011;54464;50.558;9.704;2023-04-06T11:32:44;7.50;;;6.77;;
27161;SDS011;54464;50.558;9.704;2023-04-06T11:35:20;8.17;;;6.77;;
27161;SDS011;54464;50.558;9.704;2023-04-06T11:37:50;6.87;;;6.17;;
27161;SDS011;54464;50.558;9.704;2023-04-06T11:40:20;7.57;;;6.87;;
27161;SDS011;54464;50.558;9.704;2023-04-06T11:42:53;7.40;;;6.70;;
27161;SDS011;54464;50.558;9.704;2023-04-06T11:45:22;7.10;;;6.40;;
27161;SDS011;54464;50.558;9.704;2023-04-06T11:47:57;7.75;;;7.03;;
27161;SDS011;54464;50.558;9.704;2023-04-06T11:50:24;7.28;;;6.57;;
27161;SDS011;54464;50.558;9.704;2023-04-06T11:52:59;7.28;;;6.57;;
27161;SDS011;54464;50.558;9.704;2023-04-06T11:55:26;7.03;;;6.32;;
27161;SDS011;54464;50.558;9.704;2023-04-06T11:57:54;6.63;;;5.90;;
27161;SDS011;54464;50.558;9.704;2023-04-06T12:00:20;7.77;;;6.37;;
27161;SDS011;54464;50.558;9.704;2023-04-06T12:02:47;7.63;;;6.57;;
27161;SDS011;54464;50.558;9.704;2023-04-06T12:05:13;7.47;;;6.60;;
27161;SDS011;54464;50.558;9.704;2023-04-06T12:07:38;7.37;;;6.67;;
27161;SDS011;54464;50.558;9.704;2023-04-06T12:10:04;7.27;;;6.53;;
27161;SDS011;54464;50.558;9.704;2023-04-06T12:12:31;8.90;;;7.07;;
27161;SDS011;54464;50.558;9.704;2023-04-06T12:14:57;8.10;;;6.90;;
27161;SDS011;54464;50.558;9.704;2023-04-06T12:17:26;8.27;;;6.97;;
27161;SDS011;54464;50.558;9.704;2023-04-06T12:19:51;7.87;;;7.07;;
27161;SDS011;54464;50.558;9.704;2023-04-06T12:22:17;8.43;;;7.10;;
27161;SDS011;54464;50.558;9.704;2023-04-06T12:24:46;7.20;;;5.83;;
27161;SDS011;54464;50.558;9.704;2023-04-06T12:27:12;6.57;;;5.43;;
27161;SDS011;54464;50.558;9.704;2023-04-06T12:29:37;6.57;;;5.50;;
27161;SDS011;54464;50.558;9.704;2023-04-06T12:32:03;6.47;;;5.17;;
27161;SDS011;54464;50.558;9.704;2023-04-06T12:34:29;6.60;;;5.87;;
27161;SDS011;54464;50.558;9.704;2023-04-06T12:36:55;7.50;;;5.77;;
27161;SDS011;54464;50.558;9.704;2023-04-06T12:39:21;7.20;;;5.73;;
27161;SDS011;54464;50.558;9.704;2023-04-06T12:41:47;8.07;;;6.17;;
27161;SDS011;54464;50.558;9.704;2023-04-06T12:44:13;9.00;;;6.37;;
27161;SDS011;54464;50.558;9.704;2023-04-06T12:46:38;7.63;;;5.83;;
27161;SDS011;54464;50.558;9.704;2023-04-06T12:49:04;5.93;;;4.90;;
27161;SDS011;54464;50.558;9.704;2023-04-06T12:51:30;6.27;;;5.20;;
27161;SDS011;54464;50.558;9.704;2023-04-06T12:53:58;8.33;;;5.20;;
27161;SDS011;54464;50.558;9.704;2023-04-06T12:56:24;6.77;;;5.20;;
27161;SDS011;54464;50.558;9.704;2023-04-06T12:58:50;6.70;;;4.87;;
27161;SDS011;54464;50.558;9.704;2023-04-06T13:01:16;6.20;;;5.27;;
27161;SDS011;54464;50.558;9.704;2023-04-06T13:03:42;7.97;;;5.70;;
27161;SDS011;54464;50.558;9.704;2023-04-06T13:06:08;6.70;;;5.43;;
27161;SDS011;54464;50.558;9.704;2023-04-06T13:08:34;7.20;;;4.40;;
27161;SDS011;54464;50.558;9.704;2023-04-06T13:11:02;6.17;;;4.83;;
27161;SDS011;54464;50.558;9.704;2023-04-06T13:13:28;6.53;;;4.43;;
27161;SDS011;54464;50.558;9.704;2023-04-06T13:15:58;6.47;;;4.30;;
27161;SDS011;54464;50.558;9.704;2023-04-06T13:18:29;6.77;;;4.47;;
27161;SDS011;54464;50.558;9.704;2023-04-06T13:20:55;6.13;;;4.73;;
27161;SDS011;54464;50.558;9.704;2023-04-06T13:23:22;7.27;;;4.90;;
27161;SDS011;54464;50.558;9.704;2023-04-06T13:25:56;5.03;;;4.40;;
27161;SDS011;54464;50.558;9.704;2023-04-06T13:28:22;7.57;;;5.17;;
27161;SDS011;54464;50.558;9.704;2023-04-06T13:30:48;7.90;;;5.30;;
27161;SDS011;54464;50.558;9.704;2023-04-06T13:33:14;7.83;;;5.60;;
27161;SDS011;54464;50.558;9.704;2023-04-06T13:35:39;7.53;;;5.80;;
27161;SDS011;54464;50.558;9.704;2023-04-06T13:38:09;6.37;;;4.83;;
27161;SDS011;54464;50.558;9.704;2023-04-06T13:40:35;6.93;;;5.43;;
27161;SDS011;54464;50.558;9.704;2023-04-06T13:43:07;5.87;;;5.27;;
27161;SDS011;54464;50.558;9.704;2023-04-06T13:45:32;6.07;;;4.80;;
27161;SDS011;54464;50.558;9.704;2023-04-06T13:47:58;8.10;;;5.17;;
27161;SDS011;54464;50.558;9.704;2023-04-06T13:50:27;8.03;;;5.63;;
27161;SDS011;54464;50.558;9.704;2023-04-06T13:52:53;7.40;;;5.43;;
27161;SDS011;54464;50.558;9.704;2023-04-06T13:55:20;8.37;;;6.13;;
27161;SDS011;54464;50.558;9.704;2023-04-06T13:57:46;6.17;;;5.23;;
27161;SDS011;54464;50.558;9.704;2023-04-06T14:00:11;8.33;;;5.47;;
27161;SDS011;54464;50.558;9.704;2023-04-06T14:02:39;6.47;;;5.30;;
27161;SDS011;54464;50.558;9.704;2023-04-06T14:05:05;5.73;;;5.10;;
27161;SDS011;54464;50.558;9.704;2023-04-06T14:07:31;7.03;;;5.30;;
27161;SDS011;54464;50.558;9.704;2023-04-06T14:09:57;6.97;;;5.10;;
27161;SDS011;54464;50.558;9.704;2023-04-06T14:12:22;5.63;;;5.13;;
27161;SDS011;54464;50.558;9.704;2023-04-06T14:14:48;7.30;;;5.40;;
27161;SDS011;54464;50.558;9.704;2023-04-06T14:17:13;6.40;;;4.67;;
27161;SDS011;54464;50.558;9.704;2023-04-06T14:19:39;6.50;;;4.53;;
27161;SDS011;54464;50.558;9.704;2023-04-06T14:22:05;6.87;;;3.73;;
27161;SDS011;54464;50.558;9.704;2023-04-06T14:24:30;5.80;;;4.60;;
27161;SDS011;54464;50.558;9.704;2023-04-06T14:26:56;7.20;;;4.93;;
27161;SDS011;54464;50.558;9.704;2023-04-06T14:29:22;5.70;;;4.57;;
27161;SDS011;54464;50.558;9.704;2023-04-06T14:31:48;5.27;;;4.63;;
27161;SDS011;54464;50.558;9.704;2023-04-06T14:34:14;7.60;;;4.83;;
27161;SDS011;54464;50.558;9.704;2023-04-06T14:36:41;6.87;;;4.40;;
27161;SDS011;54464;50.558;9.704;2023-04-06T14:39:07;5.47;;;4.80;;
27161;SDS011;54464;50.558;9.704;2023-04-06T14:41:34;5.03;;;4.43;;
27161;SDS011;54464;50.558;9.704;2023-04-06T14:44:00;5.63;;;5.00;;
27161;SDS011;54464;50.558;9.704;2023-04-06T14:46:26;7.70;;;4.80;;
27161;SDS011;54464;50.558;9.704;2023-04-06T14:48:55;6.13;;;5.03;;